sensor_id;sensor_type;location;lat;lon;timestamp;P1;durP1;ratioP1;P2;durP2;ratioP2
44670;SDS011;48397;53.016;-2.260;2023-04-25T00:01:58;18.45;;;6.10;;
44670;SDS011;48397;53.016;-2.260;2023-04-25T00:04:27;18.40;;;6.00;;
44670;SDS011;48397;53.016;-2.260;2023-04-25T00:07:01;18.20;;;5.47;;
44670;SDS011;48397;53.016;-2.260;2023-04-25T00:09:28;13.48;;;5.93;;
44670;SDS011;48397;53.016;-2.260;2023-04-25T00:12:00;16.33;;;5.63;;
44670;SDS011;48397;53.016;-2.260;2023-04-25T00:14:31;25.50;;;7.47;;
44670;SDS011;48397;53.016;-2.260;2023-04-25T00:17:01;19.20;;;6.57;;
44670;SDS011;48397;53.016;-2.260;2023-04-25T00:19:33;16.27;;;6.67;;
44670;SDS011;48397;53.016;-2.260;2023-04-25T00:22:01;12.93;;;5.73;;
44670;SDS011;48397;53.016;-2.260;2023-04-25T00:24:30;11.85;;;5.50;;
44670;SDS011;48397;53.016;-2.260;2023-04-25T00:26:58;18.50;;;6.00;;
44670;SDS011;48397;53.016;-2.260;2023-04-25T00:34:24;18.10;;;6.00;;
44670;SDS011;48397;53.016;-2.260;2023-04-25T00:36:53;19.37;;;5.60;;
44670;SDS011;48397;53.016;-2.260;2023-04-25T00:39:22;17.83;;;6.07;;
44670;SDS011;48397;53.016;-2.260;2023-04-25T00:41:50;16.57;;;5.00;;
44670;SDS011;48397;53.016;-2.260;2023-04-25T00:44:20;16.70;;;6.20;;
44670;SDS011;48397;53.016;-2.260;2023-04-25T00:46:48;16.43;;;6.13;;
44670;SDS011;48397;53.016;-2.260;2023-04-25T00:49:19;21.53;;;5.37;;
44670;SDS011;48397;53.016;-2.260;2023-04-25T00:51:47;14.02;;;5.57;;
44670;SDS011;48397;53.016;-2.260;2023-04-25T00:54:16;16.53;;;5.73;;
44670;SDS011;48397;53.016;-2.260;2023-04-25T00:56:45;15.13;;;5.60;;
44670;SDS011;48397;53.016;-2.260;2023-04-25T00:59:14;17.17;;;6.20;;
44670;SDS011;48397;53.016;-2.260;2023-04-25T01:01:44;18.03;;;5.93;;
44670;SDS011;48397;53.016;-2.260;2023-04-25T01:04:13;21.97;;;5.57;;
44670;SDS011;48397;53.016;-2.260;2023-04-25T01:06:42;17.97;;;5.60;;
44670;SDS011;48397;53.016;-2.260;2023-04-25T01:09:11;13.03;;;6.93;;
44670;SDS011;48397;53.016;-2.260;2023-04-25T01:11:39;16.77;;;5.03;;
44670;SDS011;48397;53.016;-2.260;2023-04-25T01:14:09;13.93;;;4.90;;
44670;SDS011;48397;53.016;-2.260;2023-04-25T01:16:38;18.23;;;5.47;;
44670;SDS011;48397;53.016;-2.260;2023-04-25T01:19:10;20.70;;;5.80;;
44670;SDS011;48397;53.016;-2.260;2023-04-25T01:21:39;13.97;;;5.10;;
44670;SDS011;48397;53.016;-2.260;2023-04-25T01:24:07;21.13;;;4.95;;
44670;SDS011;48397;53.016;-2.260;2023-04-25T01:26:37;17.77;;;5.37;;
44670;SDS011;48397;53.016;-2.260;2023-04-25T01:29:05;19.17;;;4.23;;
44670;SDS011;48397;53.016;-2.260;2023-04-25T01:31:35;16.67;;;4.07;;
44670;SDS011;48397;53.016;-2.260;2023-04-25T01:34:05;13.57;;;4.40;;
44670;SDS011;48397;53.016;-2.260;2023-04-25T01:39:01;15.40;;;4.83;;
44670;SDS011;48397;53.016;-2.260;2023-04-25T01:43:58;20.03;;;4.77;;
44670;SDS011;48397;53.016;-2.260;2023-04-25T01:46:27;16.60;;;3.93;;
44670;SDS011;48397;53.016;-2.260;2023-04-25T01:48:56;17.23;;;4.80;;
44670;SDS011;48397;53.016;-2.260;2023-04-25T01:53:52;9.68;;;4.55;;
44670;SDS011;48397;53.016;-2.260;2023-04-25T01:56:20;14.17;;;4.40;;
44670;SDS011;48397;53.016;-2.260;2023-04-25T01:58:49;10.80;;;4.33;;
44670;SDS011;48397;53.016;-2.260;2023-04-25T02:01:19;20.87;;;5.17;;
44670;SDS011;48397;53.016;-2.260;2023-04-25T02:04:03;13.80;;;4.40;;
44670;SDS011;48397;53.016;-2.260;2023-04-25T02:06:35;20.37;;;6.00;;
44670;SDS011;48397;53.016;-2.260;2023-04-25T02:09:03;14.33;;;5.13;;
44670;SDS011;48397;53.016;-2.260;2023-04-25T02:11:31;15.00;;;4.45;;
44670;SDS011;48397;53.016;-2.260;2023-04-25T02:14:21;10.33;;;4.17;;
44670;SDS011;48397;53.016;-2.260;2023-04-25T02:16:58;19.30;;;5.00;;
44670;SDS011;48397;53.016;-2.260;2023-04-25T02:19:29;19.10;;;4.43;;
44670;SDS011;48397;53.016;-2.260;2023-04-25T02:24:28;14.17;;;4.60;;
44670;SDS011;48397;53.016;-2.260;2023-04-25T02:26:58;21.30;;;5.73;;
44670;SDS011;48397;53.016;-2.260;2023-04-25T02:29:27;21.77;;;5.60;;
44670;SDS011;48397;53.016;-2.260;2023-04-25T02:31:55;21.00;;;5.67;;
44670;SDS011;48397;53.016;-2.260;2023-04-25T02:34:25;23.60;;;4.67;;
44670;SDS011;48397;53.016;-2.260;2023-04-25T02:36:53;17.77;;;4.90;;
44670;SDS011;48397;53.016;-2.260;2023-04-25T02:39:21;16.83;;;5.10;;
44670;SDS011;48397;53.016;-2.260;2023-04-25T02:44:16;12.25;;;3.80;;
44670;SDS011;48397;53.016;-2.260;2023-04-25T02:46:45;15.70;;;3.87;;
44670;SDS011;48397;53.016;-2.260;2023-04-25T02:49:13;17.00;;;3.83;;
44670;SDS011;48397;53.016;-2.260;2023-04-25T02:51:41;22.33;;;4.50;;
44670;SDS011;48397;53.016;-2.260;2023-04-25T02:54:10;26.83;;;5.27;;
44670;SDS011;48397;53.016;-2.260;2023-04-25T02:56:49;18.63;;;4.90;;
44670;SDS011;48397;53.016;-2.260;2023-04-25T02:59:23;17.77;;;4.43;;
44670;SDS011;48397;53.016;-2.260;2023-04-25T03:01:50;19.42;;;5.00;;
44670;SDS011;48397;53.016;-2.260;2023-04-25T03:06:46;13.57;;;3.83;;
44670;SDS011;48397;53.016;-2.260;2023-04-25T03:09:14;11.40;;;4.90;;
44670;SDS011;48397;53.016;-2.260;2023-04-25T03:11:44;17.13;;;4.97;;
44670;SDS011;48397;53.016;-2.260;2023-04-25T03:16:41;20.50;;;4.90;;
44670;SDS011;48397;53.016;-2.260;2023-04-25T03:19:09;13.87;;;4.20;;
44670;SDS011;48397;53.016;-2.260;2023-04-25T03:21:37;17.98;;;4.18;;
44670;SDS011;48397;53.016;-2.260;2023-04-25T03:24:05;19.23;;;4.57;;
44670;SDS011;48397;53.016;-2.260;2023-04-25T03:29:01;13.10;;;4.20;;
44670;SDS011;48397;53.016;-2.260;2023-04-25T03:31:30;13.27;;;4.37;;
44670;SDS011;48397;53.016;-2.260;2023-04-25T03:33:59;14.87;;;4.40;;
44670;SDS011;48397;53.016;-2.260;2023-04-25T03:36:27;19.55;;;5.35;;
44670;SDS011;48397;53.016;-2.260;2023-04-25T03:38:55;17.35;;;4.43;;
44670;SDS011;48397;53.016;-2.260;2023-04-25T03:41:23;16.33;;;4.53;;
44670;SDS011;48397;53.016;-2.260;2023-04-25T03:43:56;12.23;;;4.67;;
44670;SDS011;48397;53.016;-2.260;2023-04-25T03:48:52;15.17;;;4.53;;
44670;SDS011;48397;53.016;-2.260;2023-04-25T03:51:26;20.80;;;5.20;;
44670;SDS011;48397;53.016;-2.260;2023-04-25T03:53:54;19.50;;;4.93;;
44670;SDS011;48397;53.016;-2.260;2023-04-25T03:56:31;14.90;;;4.78;;
44670;SDS011;48397;53.016;-2.260;2023-04-25T03:59:09;14.25;;;3.60;;
44670;SDS011;48397;53.016;-2.260;2023-04-25T04:04:05;16.77;;;3.75;;
44670;SDS011;48397;53.016;-2.260;2023-04-25T04:06:33;19.93;;;4.70;;
44670;SDS011;48397;53.016;-2.260;2023-04-25T04:09:09;19.43;;;3.93;;
44670;SDS011;48397;53.016;-2.260;2023-04-25T04:11:41;15.83;;;4.17;;
44670;SDS011;48397;53.016;-2.260;2023-04-25T04:14:09;17.77;;;5.27;;
44670;SDS011;48397;53.016;-2.260;2023-04-25T04:16:43;16.80;;;4.10;;
44670;SDS011;48397;53.016;-2.260;2023-04-25T04:19:12;18.40;;;4.50;;
44670;SDS011;48397;53.016;-2.260;2023-04-25T04:21:46;19.60;;;5.57;;
44670;SDS011;48397;53.016;-2.260;2023-04-25T04:24:14;16.17;;;4.32;;
44670;SDS011;48397;53.016;-2.260;2023-04-25T04:26:55;17.80;;;4.60;;
44670;SDS011;48397;53.016;-2.260;2023-04-25T04:29:36;18.67;;;5.00;;
44670;SDS011;48397;53.016;-2.260;2023-04-25T04:32:10;13.90;;;4.80;;
44670;SDS011;48397;53.016;-2.260;2023-04-25T04:34:38;18.17;;;5.27;;
44670;SDS011;48397;53.016;-2.260;2023-04-25T04:37:09;15.33;;;4.80;;
44670;SDS011;48397;53.016;-2.260;2023-04-25T04:39:41;15.50;;;4.87;;
44670;SDS011;48397;53.016;-2.260;2023-04-25T04:42:29;17.17;;;4.50;;
44670;SDS011;48397;53.016;-2.260;2023-04-25T04:44:58;14.57;;;4.47;;
44670;SDS011;48397;53.016;-2.260;2023-04-25T04:47:49;15.77;;;4.60;;
44670;SDS011;48397;53.016;-2.260;2023-04-25T04:50:55;28.73;;;5.35;;
44670;SDS011;48397;53.016;-2.260;2023-04-25T04:53:43;14.90;;;4.90;;
44670;SDS011;48397;53.016;-2.260;2023-04-25T04:56:34;14.90;;;4.30;;
44670;SDS011;48397;53.016;-2.260;2023-04-25T04:59:40;19.30;;;5.20;;
44670;SDS011;48397;53.016;-2.260;2023-04-25T05:02:37;15.65;;;5.10;;
44670;SDS011;48397;53.016;-2.260;2023-04-25T05:05:29;16.83;;;5.17;;
44670;SDS011;48397;53.016;-2.260;2023-04-25T05:08:16;20.30;;;5.20;;
44670;SDS011;48397;53.016;-2.260;2023-04-25T05:13:37;23.43;;;5.43;;
44670;SDS011;48397;53.016;-2.260;2023-04-25T05:16:25;15.80;;;5.10;;
44670;SDS011;48397;53.016;-2.260;2023-04-25T05:19:18;19.03;;;5.67;;
44670;SDS011;48397;53.016;-2.260;2023-04-25T05:22:04;20.67;;;5.03;;
44670;SDS011;48397;53.016;-2.260;2023-04-25T05:24:38;21.40;;;5.10;;
44670;SDS011;48397;53.016;-2.260;2023-04-25T05:27:16;13.75;;;4.70;;
44670;SDS011;48397;53.016;-2.260;2023-04-25T05:30:04;22.10;;;4.90;;
44670;SDS011;48397;53.016;-2.260;2023-04-25T05:32:41;18.52;;;5.57;;
44670;SDS011;48397;53.016;-2.260;2023-04-25T05:35:09;19.47;;;5.57;;
44670;SDS011;48397;53.016;-2.260;2023-04-25T05:37:45;16.80;;;4.50;;
44670;SDS011;48397;53.016;-2.260;2023-04-25T05:40:14;24.27;;;5.97;;
44670;SDS011;48397;53.016;-2.260;2023-04-25T05:43:11;25.40;;;6.00;;
44670;SDS011;48397;53.016;-2.260;2023-04-25T05:45:57;16.60;;;5.43;;
44670;SDS011;48397;53.016;-2.260;2023-04-25T05:48:31;23.73;;;6.10;;
44670;SDS011;48397;53.016;-2.260;2023-04-25T05:51:06;15.47;;;4.83;;
44670;SDS011;48397;53.016;-2.260;2023-04-25T05:53:46;15.90;;;5.20;;
44670;SDS011;48397;53.016;-2.260;2023-04-25T05:56:14;16.90;;;5.10;;
44670;SDS011;48397;53.016;-2.260;2023-04-25T05:58:44;18.10;;;5.70;;
44670;SDS011;48397;53.016;-2.260;2023-04-25T06:01:13;21.63;;;5.57;;
44670;SDS011;48397;53.016;-2.260;2023-04-25T06:03:43;22.73;;;6.00;;
44670;SDS011;48397;53.016;-2.260;2023-04-25T06:06:12;18.57;;;5.83;;
44670;SDS011;48397;53.016;-2.260;2023-04-25T06:11:11;13.20;;;5.37;;
44670;SDS011;48397;53.016;-2.260;2023-04-25T06:13:39;23.13;;;6.87;;
44670;SDS011;48397;53.016;-2.260;2023-04-25T06:18:35;24.97;;;7.47;;
44670;SDS011;48397;53.016;-2.260;2023-04-25T06:21:03;18.15;;;6.57;;
44670;SDS011;48397;53.016;-2.260;2023-04-25T06:23:32;18.03;;;6.27;;
44670;SDS011;48397;53.016;-2.260;2023-04-25T06:26:06;18.40;;;6.23;;
44670;SDS011;48397;53.016;-2.260;2023-04-25T06:28:37;19.30;;;6.00;;
44670;SDS011;48397;53.016;-2.260;2023-04-25T06:31:05;13.90;;;5.13;;
44670;SDS011;48397;53.016;-2.260;2023-04-25T06:33:34;12.90;;;4.70;;
44670;SDS011;48397;53.016;-2.260;2023-04-25T06:36:04;14.23;;;4.97;;
44670;SDS011;48397;53.016;-2.260;2023-04-25T06:38:33;12.53;;;4.63;;
44670;SDS011;48397;53.016;-2.260;2023-04-25T06:41:02;12.80;;;4.40;;
44670;SDS011;48397;53.016;-2.260;2023-04-25T06:43:35;14.73;;;4.20;;
44670;SDS011;48397;53.016;-2.260;2023-04-25T06:46:26;12.80;;;4.17;;
44670;SDS011;48397;53.016;-2.260;2023-04-25T06:48:57;12.30;;;3.90;;
44670;SDS011;48397;53.016;-2.260;2023-04-25T06:51:25;19.35;;;4.47;;
44670;SDS011;48397;53.016;-2.260;2023-04-25T06:53:55;14.83;;;4.60;;
44670;SDS011;48397;53.016;-2.260;2023-04-25T06:56:29;17.27;;;4.00;;
44670;SDS011;48397;53.016;-2.260;2023-04-25T06:59:06;12.33;;;3.90;;
44670;SDS011;48397;53.016;-2.260;2023-04-25T07:01:38;12.10;;;4.20;;
44670;SDS011;48397;53.016;-2.260;2023-04-25T07:04:24;10.65;;;2.85;;
44670;SDS011;48397;53.016;-2.260;2023-04-25T07:06:57;6.07;;;2.08;;
44670;SDS011;48397;53.016;-2.260;2023-04-25T07:09:36;1.98;;;1.08;;
44670;SDS011;48397;53.016;-2.260;2023-04-25T07:12:04;4.32;;;1.20;;
44670;SDS011;48397;53.016;-2.260;2023-04-25T07:14:33;1.77;;;0.65;;
44670;SDS011;48397;53.016;-2.260;2023-04-25T07:17:01;5.03;;;1.40;;
44670;SDS011;48397;53.016;-2.260;2023-04-25T07:19:31;5.97;;;1.60;;
44670;SDS011;48397;53.016;-2.260;2023-04-25T07:22:02;3.28;;;1.52;;
44670;SDS011;48397;53.016;-2.260;2023-04-25T07:24:32;2.20;;;1.02;;
44670;SDS011;48397;53.016;-2.260;2023-04-25T07:27:05;10.45;;;1.70;;
44670;SDS011;48397;53.016;-2.260;2023-04-25T07:29:46;2.58;;;1.63;;
44670;SDS011;48397;53.016;-2.260;2023-04-25T07:32:15;10.23;;;1.92;;
44670;SDS011;48397;53.016;-2.260;2023-04-25T07:34:47;2.53;;;0.82;;
44670;SDS011;48397;53.016;-2.260;2023-04-25T07:37:16;3.05;;;1.27;;
44670;SDS011;48397;53.016;-2.260;2023-04-25T07:39:59;4.43;;;1.23;;
44670;SDS011;48397;53.016;-2.260;2023-04-25T07:42:28;3.28;;;1.40;;
44670;SDS011;48397;53.016;-2.260;2023-04-25T07:44:57;7.25;;;2.60;;
44670;SDS011;48397;53.016;-2.260;2023-04-25T07:47:26;5.60;;;1.77;;
44670;SDS011;48397;53.016;-2.260;2023-04-25T07:49:56;6.75;;;1.90;;
44670;SDS011;48397;53.016;-2.260;2023-04-25T07:52:26;3.20;;;1.73;;
44670;SDS011;48397;53.016;-2.260;2023-04-25T07:55:03;2.67;;;1.45;;
44670;SDS011;48397;53.016;-2.260;2023-04-25T07:57:42;13.65;;;2.35;;
44670;SDS011;48397;53.016;-2.260;2023-04-25T08:00:26;3.13;;;1.40;;
44670;SDS011;48397;53.016;-2.260;2023-04-25T08:03:28;4.55;;;2.08;;
44670;SDS011;48397;53.016;-2.260;2023-04-25T08:05:58;7.70;;;1.52;;
44670;SDS011;48397;53.016;-2.260;2023-04-25T08:08:30;3.65;;;2.08;;
44670;SDS011;48397;53.016;-2.260;2023-04-25T08:10:58;6.57;;;2.03;;
44670;SDS011;48397;53.016;-2.260;2023-04-25T08:13:27;8.20;;;2.00;;
44670;SDS011;48397;53.016;-2.260;2023-04-25T08:15:56;3.30;;;1.73;;
44670;SDS011;48397;53.016;-2.260;2023-04-25T08:18:31;9.63;;;2.85;;
44670;SDS011;48397;53.016;-2.260;2023-04-25T08:21:05;5.43;;;2.30;;
44670;SDS011;48397;53.016;-2.260;2023-04-25T08:23:38;6.95;;;2.40;;
44670;SDS011;48397;53.016;-2.260;2023-04-25T08:26:13;4.30;;;1.50;;
44670;SDS011;48397;53.016;-2.260;2023-04-25T08:28:42;4.15;;;1.52;;
44670;SDS011;48397;53.016;-2.260;2023-04-25T08:31:11;5.30;;;1.75;;
44670;SDS011;48397;53.016;-2.260;2023-04-25T08:33:49;5.70;;;1.85;;
44670;SDS011;48397;53.016;-2.260;2023-04-25T08:36:32;6.63;;;1.60;;
44670;SDS011;48397;53.016;-2.260;2023-04-25T08:39:18;3.83;;;1.73;;
44670;SDS011;48397;53.016;-2.260;2023-04-25T08:42:08;4.20;;;1.60;;
44670;SDS011;48397;53.016;-2.260;2023-04-25T08:44:39;7.53;;;2.00;;
44670;SDS011;48397;53.016;-2.260;2023-04-25T08:47:07;7.60;;;1.63;;
44670;SDS011;48397;53.016;-2.260;2023-04-25T08:49:49;5.05;;;1.75;;
44670;SDS011;48397;53.016;-2.260;2023-04-25T08:52:22;5.57;;;1.70;;
44670;SDS011;48397;53.016;-2.260;2023-04-25T08:54:52;7.90;;;2.10;;
44670;SDS011;48397;53.016;-2.260;2023-04-25T08:57:24;3.42;;;1.38;;
44670;SDS011;48397;53.016;-2.260;2023-04-25T08:59:53;10.40;;;2.13;;
44670;SDS011;48397;53.016;-2.260;2023-04-25T09:02:24;6.45;;;1.75;;
44670;SDS011;48397;53.016;-2.260;2023-04-25T09:04:53;5.57;;;1.60;;
44670;SDS011;48397;53.016;-2.260;2023-04-25T09:07:23;3.72;;;1.38;;
44670;SDS011;48397;53.016;-2.260;2023-04-25T09:09:51;4.07;;;1.38;;
44670;SDS011;48397;53.016;-2.260;2023-04-25T09:12:22;4.30;;;1.00;;
44670;SDS011;48397;53.016;-2.260;2023-04-25T09:15:08;2.47;;;1.50;;
44670;SDS011;48397;53.016;-2.260;2023-04-25T09:17:56;5.80;;;1.60;;
44670;SDS011;48397;53.016;-2.260;2023-04-25T09:20:32;4.45;;;1.35;;
44670;SDS011;48397;53.016;-2.260;2023-04-25T09:23:29;5.78;;;2.08;;
44670;SDS011;48397;53.016;-2.260;2023-04-25T09:26:00;7.00;;;1.70;;
44670;SDS011;48397;53.016;-2.260;2023-04-25T09:31:23;9.30;;;1.60;;
44670;SDS011;48397;53.016;-2.260;2023-04-25T09:34:00;8.23;;;2.50;;
44670;SDS011;48397;53.016;-2.260;2023-04-25T09:36:41;5.00;;;1.50;;
44670;SDS011;48397;53.016;-2.260;2023-04-25T09:39:28;2.90;;;1.75;;
44670;SDS011;48397;53.016;-2.260;2023-04-25T09:42:08;3.63;;;1.17;;
44670;SDS011;48397;53.016;-2.260;2023-04-25T09:44:37;4.25;;;1.35;;
44670;SDS011;48397;53.016;-2.260;2023-04-25T09:47:17;6.95;;;2.00;;
44670;SDS011;48397;53.016;-2.260;2023-04-25T09:49:46;4.50;;;2.08;;
44670;SDS011;48397;53.016;-2.260;2023-04-25T09:52:16;3.05;;;1.45;;
44670;SDS011;48397;53.016;-2.260;2023-04-25T09:55:11;6.38;;;2.45;;
44670;SDS011;48397;53.016;-2.260;2023-04-25T09:57:54;5.13;;;1.90;;
44670;SDS011;48397;53.016;-2.260;2023-04-25T10:00:26;7.82;;;1.92;;
44670;SDS011;48397;53.016;-2.260;2023-04-25T10:03:01;3.78;;;2.20;;
44670;SDS011;48397;53.016;-2.260;2023-04-25T10:05:56;2.95;;;1.88;;
44670;SDS011;48397;53.016;-2.260;2023-04-25T10:08:28;13.65;;;2.35;;
44670;SDS011;48397;53.016;-2.260;2023-04-25T10:11:01;7.32;;;2.58;;
44670;SDS011;48397;53.016;-2.260;2023-04-25T10:13:31;10.30;;;2.00;;
44670;SDS011;48397;53.016;-2.260;2023-04-25T10:16:02;6.63;;;2.35;;
44670;SDS011;48397;53.016;-2.260;2023-04-25T10:18:33;3.03;;;1.67;;
44670;SDS011;48397;53.016;-2.260;2023-04-25T10:21:03;3.15;;;1.48;;
44670;SDS011;48397;53.016;-2.260;2023-04-25T10:23:32;4.25;;;1.70;;
44670;SDS011;48397;53.016;-2.260;2023-04-25T10:26:03;2.55;;;1.45;;
44670;SDS011;48397;53.016;-2.260;2023-04-25T10:31:20;4.05;;;1.60;;
44670;SDS011;48397;53.016;-2.260;2023-04-25T10:33:48;13.98;;;2.55;;
44670;SDS011;48397;53.016;-2.260;2023-04-25T10:36:18;4.35;;;1.80;;
44670;SDS011;48397;53.016;-2.260;2023-04-25T10:38:49;5.00;;;2.17;;
44670;SDS011;48397;53.016;-2.260;2023-04-25T10:41:20;7.18;;;2.45;;
44670;SDS011;48397;53.016;-2.260;2023-04-25T10:43:50;4.45;;;1.75;;
44670;SDS011;48397;53.016;-2.260;2023-04-25T10:46:30;5.03;;;1.80;;
44670;SDS011;48397;53.016;-2.260;2023-04-25T10:49:02;4.05;;;2.40;;
44670;SDS011;48397;53.016;-2.260;2023-04-25T10:51:31;7.15;;;1.80;;
44670;SDS011;48397;53.016;-2.260;2023-04-25T10:54:20;6.13;;;1.83;;
44670;SDS011;48397;53.016;-2.260;2023-04-25T10:56:52;3.28;;;1.65;;
44670;SDS011;48397;53.016;-2.260;2023-04-25T11:01:52;3.75;;;1.60;;
44670;SDS011;48397;53.016;-2.260;2023-04-25T11:04:23;4.63;;;1.73;;
44670;SDS011;48397;53.016;-2.260;2023-04-25T11:09:38;6.10;;;1.92;;
44670;SDS011;48397;53.016;-2.260;2023-04-25T11:12:11;4.78;;;2.22;;
44670;SDS011;48397;53.016;-2.260;2023-04-25T11:14:42;4.28;;;2.72;;
44670;SDS011;48397;53.016;-2.260;2023-04-25T11:17:10;4.80;;;2.47;;
44670;SDS011;48397;53.016;-2.260;2023-04-25T11:19:39;8.10;;;2.67;;
44670;SDS011;48397;53.016;-2.260;2023-04-25T11:24:37;3.45;;;2.17;;
44670;SDS011;48397;53.016;-2.260;2023-04-25T11:27:06;11.35;;;3.13;;
44670;SDS011;48397;53.016;-2.260;2023-04-25T11:29:41;6.20;;;2.50;;
44670;SDS011;48397;53.016;-2.260;2023-04-25T11:32:09;4.32;;;2.58;;
44670;SDS011;48397;53.016;-2.260;2023-04-25T11:34:38;6.60;;;2.85;;
44670;SDS011;48397;53.016;-2.260;2023-04-25T11:37:06;6.55;;;3.00;;
44670;SDS011;48397;53.016;-2.260;2023-04-25T11:42:03;7.78;;;2.58;;
44670;SDS011;48397;53.016;-2.260;2023-04-25T11:44:35;5.55;;;3.58;;
44670;SDS011;48397;53.016;-2.260;2023-04-25T11:47:06;5.13;;;2.40;;
44670;SDS011;48397;53.016;-2.260;2023-04-25T11:49:34;6.03;;;2.42;;
44670;SDS011;48397;53.016;-2.260;2023-04-25T11:52:02;7.72;;;2.63;;
44670;SDS011;48397;53.016;-2.260;2023-04-25T11:54:36;6.10;;;2.70;;
44670;SDS011;48397;53.016;-2.260;2023-04-25T11:57:04;5.95;;;2.58;;
44670;SDS011;48397;53.016;-2.260;2023-04-25T11:59:33;8.63;;;2.75;;
44670;SDS011;48397;53.016;-2.260;2023-04-25T12:02:01;7.95;;;2.92;;
44670;SDS011;48397;53.016;-2.260;2023-04-25T12:06:58;6.30;;;2.55;;
44670;SDS011;48397;53.016;-2.260;2023-04-25T12:09:32;13.63;;;4.18;;
44670;SDS011;48397;53.016;-2.260;2023-04-25T12:12:01;11.55;;;3.58;;
44670;SDS011;48397;53.016;-2.260;2023-04-25T12:14:34;7.35;;;2.83;;
44670;SDS011;48397;53.016;-2.260;2023-04-25T12:17:03;5.10;;;2.45;;
44670;SDS011;48397;53.016;-2.260;2023-04-25T12:19:39;10.85;;;3.47;;
44670;SDS011;48397;53.016;-2.260;2023-04-25T12:22:20;10.30;;;4.32;;
44670;SDS011;48397;53.016;-2.260;2023-04-25T12:24:49;4.95;;;2.58;;
44670;SDS011;48397;53.016;-2.260;2023-04-25T12:27:17;11.63;;;5.03;;
44670;SDS011;48397;53.016;-2.260;2023-04-25T12:29:56;8.23;;;3.33;;
44670;SDS011;48397;53.016;-2.260;2023-04-25T12:32:25;11.27;;;3.47;;
44670;SDS011;48397;53.016;-2.260;2023-04-25T12:34:56;10.30;;;4.10;;
44670;SDS011;48397;53.016;-2.260;2023-04-25T12:37:26;9.80;;;3.63;;
44670;SDS011;48397;53.016;-2.260;2023-04-25T12:40:02;11.70;;;4.00;;
44670;SDS011;48397;53.016;-2.260;2023-04-25T12:42:35;10.63;;;4.10;;
44670;SDS011;48397;53.016;-2.260;2023-04-25T12:45:04;8.98;;;3.95;;
44670;SDS011;48397;53.016;-2.260;2023-04-25T13:09:36;10.45;;;4.38;;
44670;SDS011;48397;53.016;-2.260;2023-04-25T13:15:15;12.02;;;4.55;;
44670;SDS011;48397;53.016;-2.260;2023-04-25T13:17:48;13.23;;;5.18;;
44670;SDS011;48397;53.016;-2.260;2023-04-25T13:20:18;8.68;;;4.15;;
44670;SDS011;48397;53.016;-2.260;2023-04-25T13:22:57;12.65;;;4.50;;
44670;SDS011;48397;53.016;-2.260;2023-04-25T13:25:31;7.13;;;2.78;;
44670;SDS011;48397;53.016;-2.260;2023-04-25T13:34:51;10.48;;;4.78;;
44670;SDS011;48397;53.016;-2.260;2023-04-25T13:37:22;10.98;;;4.93;;
44670;SDS011;48397;53.016;-2.260;2023-04-25T13:39:51;20.23;;;5.72;;
44670;SDS011;48397;53.016;-2.260;2023-04-25T13:42:37;9.63;;;4.68;;
44670;SDS011;48397;53.016;-2.260;2023-04-25T13:45:52;12.63;;;4.85;;
44670;SDS011;48397;53.016;-2.260;2023-04-25T13:48:26;13.77;;;4.75;;
44670;SDS011;48397;53.016;-2.260;2023-04-25T13:50:58;8.68;;;4.95;;
44670;SDS011;48397;53.016;-2.260;2023-04-25T13:53:28;9.45;;;4.68;;
44670;SDS011;48397;53.016;-2.260;2023-04-25T13:55:58;9.20;;;4.60;;
44670;SDS011;48397;53.016;-2.260;2023-04-25T13:58:25;15.27;;;4.70;;
44670;SDS011;48397;53.016;-2.260;2023-04-25T14:04:06;8.88;;;4.43;;
44670;SDS011;48397;53.016;-2.260;2023-04-25T14:06:36;14.43;;;5.57;;
44670;SDS011;48397;53.016;-2.260;2023-04-25T14:09:05;11.32;;;5.80;;
44670;SDS011;48397;53.016;-2.260;2023-04-25T14:11:38;11.98;;;6.60;;
44670;SDS011;48397;53.016;-2.260;2023-04-25T14:14:06;10.95;;;5.70;;
44670;SDS011;48397;53.016;-2.260;2023-04-25T14:16:35;13.10;;;6.18;;
44670;SDS011;48397;53.016;-2.260;2023-04-25T14:19:03;12.25;;;5.63;;
44670;SDS011;48397;53.016;-2.260;2023-04-25T14:21:35;15.85;;;6.47;;
44670;SDS011;48397;53.016;-2.260;2023-04-25T14:24:08;9.35;;;5.53;;
44670;SDS011;48397;53.016;-2.260;2023-04-25T14:26:38;10.95;;;6.25;;
44670;SDS011;48397;53.016;-2.260;2023-04-25T14:29:06;10.60;;;5.97;;
44670;SDS011;48397;53.016;-2.260;2023-04-25T14:31:35;10.27;;;5.28;;
44670;SDS011;48397;53.016;-2.260;2023-04-25T14:34:04;8.52;;;4.65;;
44670;SDS011;48397;53.016;-2.260;2023-04-25T14:36:33;14.15;;;4.72;;
44670;SDS011;48397;53.016;-2.260;2023-04-25T14:39:04;9.45;;;3.33;;
44670;SDS011;48397;53.016;-2.260;2023-04-25T14:44:00;9.95;;;4.82;;
44670;SDS011;48397;53.016;-2.260;2023-04-25T14:46:28;12.77;;;6.70;;
44670;SDS011;48397;53.016;-2.260;2023-04-25T14:48:57;10.23;;;5.57;;
44670;SDS011;48397;53.016;-2.260;2023-04-25T14:51:25;9.52;;;5.75;;
44670;SDS011;48397;53.016;-2.260;2023-04-25T14:53:53;13.75;;;4.72;;
44670;SDS011;48397;53.016;-2.260;2023-04-25T14:56:26;7.72;;;3.92;;
44670;SDS011;48397;53.016;-2.260;2023-04-25T14:59:04;10.02;;;5.35;;
44670;SDS011;48397;53.016;-2.260;2023-04-25T15:01:35;9.48;;;4.20;;
44670;SDS011;48397;53.016;-2.260;2023-04-25T15:04:03;9.70;;;4.70;;
44670;SDS011;48397;53.016;-2.260;2023-04-25T15:08:59;10.70;;;5.88;;
44670;SDS011;48397;53.016;-2.260;2023-04-25T15:11:29;11.85;;;6.03;;
44670;SDS011;48397;53.016;-2.260;2023-04-25T15:13:58;12.18;;;5.32;;
44670;SDS011;48397;53.016;-2.260;2023-04-25T15:16:35;15.65;;;5.93;;
44670;SDS011;48397;53.016;-2.260;2023-04-25T15:19:20;18.60;;;6.40;;
44670;SDS011;48397;53.016;-2.260;2023-04-25T15:21:53;17.40;;;6.80;;
44670;SDS011;48397;53.016;-2.260;2023-04-25T15:24:52;20.70;;;6.82;;
44670;SDS011;48397;53.016;-2.260;2023-04-25T15:27:22;11.30;;;5.93;;
44670;SDS011;48397;53.016;-2.260;2023-04-25T15:33:11;10.73;;;6.38;;
44670;SDS011;48397;53.016;-2.260;2023-04-25T15:35:39;9.02;;;5.28;;
44670;SDS011;48397;53.016;-2.260;2023-04-25T15:39:21;10.77;;;5.18;;
44670;SDS011;48397;53.016;-2.260;2023-04-25T15:41:49;12.98;;;5.72;;
44670;SDS011;48397;53.016;-2.260;2023-04-25T15:44:35;7.47;;;3.63;;
44670;SDS011;48397;53.016;-2.260;2023-04-25T15:53:23;9.75;;;4.50;;
44670;SDS011;48397;53.016;-2.260;2023-04-25T15:59:06;14.07;;;6.93;;
44670;SDS011;48397;53.016;-2.260;2023-04-25T16:02:12;12.00;;;6.47;;
44670;SDS011;48397;53.016;-2.260;2023-04-25T16:08:28;10.52;;;5.45;;
44670;SDS011;48397;53.016;-2.260;2023-04-25T16:14:11;13.80;;;5.45;;
44670;SDS011;48397;53.016;-2.260;2023-04-25T16:16:40;13.60;;;6.57;;
44670;SDS011;48397;53.016;-2.260;2023-04-25T16:19:09;11.85;;;6.55;;
44670;SDS011;48397;53.016;-2.260;2023-04-25T16:21:38;11.57;;;6.63;;
44670;SDS011;48397;53.016;-2.260;2023-04-25T16:24:14;13.10;;;6.25;;
44670;SDS011;48397;53.016;-2.260;2023-04-25T16:26:43;12.10;;;6.75;;
44670;SDS011;48397;53.016;-2.260;2023-04-25T16:29:12;12.40;;;6.13;;
44670;SDS011;48397;53.016;-2.260;2023-04-25T16:31:43;9.10;;;5.55;;
44670;SDS011;48397;53.016;-2.260;2023-04-25T16:34:13;16.30;;;6.13;;
44670;SDS011;48397;53.016;-2.260;2023-04-25T16:36:43;12.85;;;5.38;;
44670;SDS011;48397;53.016;-2.260;2023-04-25T16:39:12;16.98;;;6.32;;
44670;SDS011;48397;53.016;-2.260;2023-04-25T16:41:40;14.18;;;6.18;;
44670;SDS011;48397;53.016;-2.260;2023-04-25T16:44:08;12.48;;;6.25;;
44670;SDS011;48397;53.016;-2.260;2023-04-25T16:46:36;13.30;;;7.07;;
44670;SDS011;48397;53.016;-2.260;2023-04-25T16:49:04;11.50;;;5.60;;
44670;SDS011;48397;53.016;-2.260;2023-04-25T16:51:32;9.48;;;3.70;;
44670;SDS011;48397;53.016;-2.260;2023-04-25T16:54:01;15.20;;;6.68;;
44670;SDS011;48397;53.016;-2.260;2023-04-25T16:56:29;13.07;;;6.47;;